Time;durP1;ratioP1;P1;durP2;ratioP2;P2;SDS_P1;SDS_P2;PMS_P1;PMS_P2;Temp;Humidity;BMP_temperature;BMP_pressure;BME280_temperature;BME280_humidity;BME280_pressure;Samples;Min_cycle;Max_cycle;Signal;HPM_P1;HPM_P2
2021/07/23 00:01:25;;;;;;;16.60;13.53;;;18.60;95.10;;;;;;5093650;28;20516;-68
2021/07/23 00:03:52;;;;;;;16.60;12.37;;;18.60;95.10;;;;;;5093795;28;21525;-68
2021/07/23 00:06:19;;;;;;;19.83;12.47;;;18.60;95.30;;;;;;5093842;28;20435;-68
2021/07/23 00:08:47;;;;;;;15.90;11.50;;;18.60;95.10;;;;;;5093828;28;20529;-67
2021/07/23 00:11:14;;;;;;;19.83;12.80;;;18.60;95.00;;;;;;5093809;28;20782;-67
2021/07/23 00:13:41;;;;;;;17.30;12.60;;;18.60;94.80;;;;;;5093811;28;20492;-67
2021/07/23 00:16:08;;;;;;;15.67;12.20;;;18.70;94.60;;;;;;5093725;28;20467;-67
2021/07/23 00:18:35;;;;;;;21.47;12.67;;;18.60;94.50;;;;;;5093718;28;20954;-68
2021/07/23 00:21:02;;;;;;;15.70;13.13;;;18.60;94.50;;;;;;5093199;28;20494;-68
2021/07/23 00:23:31;;;;;;;14.40;11.70;;;18.60;94.50;;;;;;5093409;28;20500;-68
2021/07/23 00:25:59;;;;;;;17.03;11.50;;;18.60;94.50;;;;;;5093500;28;20431;-68
2021/07/23 00:28:28;;;;;;;15.90;12.43;;;18.60;94.50;;;;;;5093556;28;20471;-69
2021/07/23 00:30:55;;;;;;;14.87;11.20;;;18.60;94.30;;;;;;5093555;28;20483;-68
2021/07/23 00:33:24;;;;;;;22.20;13.80;;;18.60;94.30;;;;;;5093400;28;20447;-67
2021/07/23 00:35:51;;;;;;;15.17;11.87;;;18.50;94.30;;;;;;5093370;28;20475;-67
2021/07/23 00:38:20;;;;;;;15.33;13.30;;;18.50;94.40;;;;;;5093425;28;20820;-68
2021/07/23 00:40:47;;;;;;;15.20;11.50;;;18.50;94.20;;;;;;5093363;28;20454;-67
2021/07/23 00:43:16;;;;;;;16.50;11.87;;;18.50;94.50;;;;;;5093322;28;20936;-67
2021/07/23 00:45:44;;;;;;;16.23;11.80;;;18.40;94.60;;;;;;5093111;28;20514;-67
2021/07/23 00:48:14;;;;;;;16.13;13.63;;;18.40;94.80;;;;;;5093063;28;20439;-68
2021/07/23 00:50:42;;;;;;;17.07;13.30;;;18.40;94.70;;;;;;5093238;28;20458;-68
2021/07/23 00:53:12;;;;;;;17.70;13.87;;;18.40;94.60;;;;;;5093272;28;20781;-68
2021/07/23 00:55:49;;;;;;;19.40;11.80;;;18.40;94.50;;;;;;5093219;28;20830;-68
2021/07/23 00:58:17;;;;;;;16.90;12.67;;;18.40;94.50;;;;;;5093283;28;20492;-68
2021/07/23 01:00:44;;;;;;;22.47;13.50;;;18.40;94.70;;;;;;5092633;28;20516;-67
2021/07/23 01:03:16;;;;;;;16.13;13.13;;;18.40;94.80;;;;;;5093033;28;20948;-68
2021/07/23 01:05:43;;;;;;;17.93;12.27;;;18.40;94.60;;;;;;5093164;28;20976;-68
2021/07/23 01:08:11;;;;;;;17.20;11.77;;;18.30;94.30;;;;;;5093026;28;20431;-67
2021/07/23 01:10:39;;;;;;;16.20;11.70;;;18.30;94.30;;;;;;5092845;28;20431;-67
2021/07/23 01:13:12;;;;;;;16.00;13.23;;;18.30;94.40;;;;;;5092996;28;20437;-67
2021/07/23 01:15:40;;;;;;;15.30;11.90;;;18.20;94.50;;;;;;5093095;28;20439;-67
2021/07/23 01:18:08;;;;;;;16.10;11.10;;;18.20;94.60;;;;;;5093025;28;20491;-67
2021/07/23 01:20:35;;;;;;;14.70;11.80;;;18.20;94.50;;;;;;5092974;28;20798;-68
2021/07/23 01:23:05;;;;;;;15.00;11.67;;;18.20;94.40;;;;;;5092879;28;20457;-67
2021/07/23 01:25:35;;;;;;;16.43;12.43;;;18.10;93.90;;;;;;5092888;28;20485;-68
2021/07/23 01:28:04;;;;;;;17.70;11.40;;;18.00;93.90;;;;;;5092756;28;20431;-67
2021/07/23 01:30:37;;;;;;;16.97;11.80;;;18.00;94.00;;;;;;5092714;28;20431;-68
2021/07/23 01:33:06;;;;;;;16.80;11.97;;;18.00;94.00;;;;;;5095251;28;20443;-68
2021/07/23 01:35:33;;;;;;;16.77;12.60;;;17.90;94.10;;;;;;5096770;28;20447;-68
2021/07/23 01:38:05;;;;;;;15.20;11.87;;;17.90;94.20;;;;;;5096696;28;20432;-69
2021/07/23 01:40:33;;;;;;;16.77;12.07;;;17.80;94.20;;;;;;5096638;28;20932;-68
2021/07/23 01:43:01;;;;;;;24.13;13.00;;;17.80;94.30;;;;;;5096653;28;20462;-68
2021/07/23 01:45:28;;;;;;;14.10;10.03;;;17.80;93.70;;;;;;5096395;28;20478;-68
2021/07/23 01:47:56;;;;;;;15.83;11.60;;;17.70;93.70;;;;;;5096525;28;20462;-68
2021/07/23 01:50:24;;;;;;;15.87;13.00;;;17.60;93.70;;;;;;5096550;28;20438;-68
2021/07/23 01:52:51;;;;;;;18.57;11.77;;;17.50;94.00;;;;;;5096462;28;20530;-67
2021/07/23 01:55:18;;;;;;;15.40;11.13;;;17.50;94.10;;;;;;5096349;28;20822;-68
2021/07/23 01:57:47;;;;;;;19.97;12.40;;;17.50;94.20;;;;;;5096496;28;20758;-67
2021/07/23 02:00:14;;;;;;;18.27;14.37;;;17.50;94.50;;;;;;5096059;28;20458;-67
2021/07/23 02:02:43;;;;;;;16.73;14.17;;;17.60;94.70;;;;;;5096307;28;20500;-68
2021/07/23 02:05:11;;;;;;;20.93;13.27;;;17.60;94.90;;;;;;5096133;28;20486;-67
2021/07/23 02:07:38;;;;;;;14.67;11.20;;;17.60;95.10;;;;;;5096055;28;20912;-68
2021/07/23 02:10:07;;;;;;;15.70;11.70;;;17.60;94.70;;;;;;5095932;28;20443;-67
2021/07/23 02:12:34;;;;;;;17.57;12.30;;;17.60;94.60;;;;;;5096010;28;20434;-68
2021/07/23 02:15:02;;;;;;;16.10;12.27;;;17.50;94.60;;;;;;5095860;28;20897;-67
2021/07/23 02:17:34;;;;;;;13.90;12.23;;;17.40;94.80;;;;;;5095809;28;20435;-69
2021/07/23 02:20:01;;;;;;;16.40;12.33;;;17.30;95.00;;;;;;5096114;28;20431;-67
2021/07/23 02:22:30;;;;;;;16.07;12.13;;;17.30;95.20;;;;;;5095803;28;20439;-68
2021/07/23 02:24:57;;;;;;;14.47;12.10;;;17.20;95.40;;;;;;5095458;28;20973;-68
2021/07/23 02:27:24;;;;;;;16.80;12.67;;;17.20;95.40;;;;;;5095851;28;20446;-67
2021/07/23 02:29:51;;;;;;;14.60;11.57;;;17.10;95.70;;;;;;5095872;28;20435;-68
2021/07/23 02:32:19;;;;;;;16.57;11.93;;;17.00;95.90;;;;;;5095579;28;20473;-67
2021/07/23 02:34:51;;;;;;;17.40;12.20;;;16.90;95.90;;;;;;5095648;28;20492;-67
2021/07/23 02:37:18;;;;;;;16.43;12.70;;;16.90;95.80;;;;;;5095633;28;20435;-68
2021/07/23 02:39:45;;;;;;;18.57;12.73;;;16.80;96.20;;;;;;5095540;28;20454;-67
2021/07/23 02:42:14;;;;;;;16.13;11.40;;;16.70;96.50;;;;;;5095564;28;20767;-67
2021/07/23 02:44:41;;;;;;;18.33;12.33;;;16.70;96.50;;;;;;5095025;28;20524;-68
2021/07/23 02:47:08;;;;;;;15.57;12.10;;;16.70;96.70;;;;;;5095534;28;20779;-67
2021/07/23 02:49:36;;;;;;;19.60;13.33;;;16.70;97.00;;;;;;5095330;28;20497;-67
2021/07/23 02:52:04;;;;;;;14.87;11.80;;;16.70;97.20;;;;;;5095262;28;20439;-68
2021/07/23 02:54:33;;;;;;;16.40;13.10;;;16.70;97.10;;;;;;5095209;28;20835;-67
2021/07/23 02:57:00;;;;;;;15.57;11.93;;;16.70;97.10;;;;;;5095282;28;20775;-68
2021/07/23 02:59:27;;;;;;;15.77;12.27;;;16.70;96.80;;;;;;5094911;28;20446;-68
2021/07/23 03:01:54;;;;;;;17.20;12.70;;;16.60;96.70;;;;;;5095231;28;20435;-67
2021/07/23 03:04:21;;;;;;;16.00;11.73;;;16.60;96.60;;;;;;5094934;28;20435;-69
2021/07/23 03:06:49;;;;;;;17.30;13.60;;;16.60;96.60;;;;;;5094896;28;20501;-68
2021/07/23 03:09:16;;;;;;;18.90;14.27;;;16.60;96.30;;;;;;5094895;28;20435;-67
2021/07/23 03:11:43;;;;;;;24.07;14.70;;;16.70;96.30;;;;;;5094947;28;20444;-67
2021/07/23 03:14:15;;;;;;;19.83;13.83;;;16.60;96.20;;;;;;5094959;28;20443;-68
2021/07/23 03:16:42;;;;;;;20.40;11.87;;;16.60;96.30;;;;;;5094840;28;20483;-68
2021/07/23 03:19:09;;;;;;;14.17;11.37;;;16.60;96.50;;;;;;5094841;28;20443;-67
2021/07/23 03:21:39;;;;;;;17.40;11.27;;;16.60;96.50;;;;;;5094710;28;20431;-68
2021/07/23 03:24:07;;;;;;;19.80;11.73;;;16.60;96.40;;;;;;5094691;28;20831;-69
2021/07/23 03:26:34;;;;;;;15.17;12.23;;;16.50;96.40;;;;;;5094394;28;20980;-67
2021/07/23 03:29:03;;;;;;;22.37;14.67;;;16.50;96.40;;;;;;5094425;28;20900;-68
2021/07/23 03:31:31;;;;;;;19.40;13.60;;;16.50;96.40;;;;;;5094435;28;20453;-68
2021/07/23 03:33:59;;;;;;;17.77;14.00;;;16.40;96.60;;;;;;5094517;28;20441;-68
2021/07/23 03:36:27;;;;;;;18.73;13.23;;;16.40;96.90;;;;;;5094516;28;20443;-68
2021/07/23 03:38:54;;;;;;;21.87;13.07;;;16.50;96.70;;;;;;5094348;28;20978;-67
2021/07/23 03:41:23;;;;;;;17.23;12.60;;;16.50;96.50;;;;;;5094457;28;20862;-67
2021/07/23 03:43:50;;;;;;;17.70;12.77;;;16.60;96.50;;;;;;5094378;28;20496;-68
2021/07/23 03:46:17;;;;;;;16.90;12.50;;;16.50;96.20;;;;;;5094372;28;20486;-68
2021/07/23 03:48:44;;;;;;;17.40;13.00;;;16.60;96.00;;;;;;5094308;28;20435;-67
2021/07/23 03:51:11;;;;;;;15.10;11.37;;;16.50;96.20;;;;;;5094140;28;20882;-67
2021/07/23 03:53:39;;;;;;;17.53;13.63;;;16.50;95.90;;;;;;5094012;28;20946;-68
2021/07/23 03:56:07;;;;;;;15.97;11.83;;;16.50;95.80;;;;;;5093406;28;20772;-67
2021/07/23 03:58:39;;;;;;;18.50;12.03;;;16.40;95.80;;;;;;5094117;28;20439;-68
2021/07/23 04:01:06;;;;;;;20.70;12.63;;;16.40;95.80;;;;;;5093966;28;20508;-68
2021/07/23 04:03:37;;;;;;;16.00;12.43;;;16.50;95.90;;;;;;5094024;28;20431;-68
2021/07/23 04:06:04;;;;;;;17.13;11.37;;;16.40;95.90;;;;;;5093893;28;20478;-68
2021/07/23 04:08:31;;;;;;;18.50;12.80;;;16.40;96.20;;;;;;5093481;28;20793;-67
2021/07/23 04:11:00;;;;;;;16.40;11.47;;;16.40;96.30;;;;;;5093916;28;20439;-69
2021/07/23 04:13:27;;;;;;;14.97;12.40;;;16.40;96.20;;;;;;5093946;28;20438;-68
2021/07/23 04:15:55;;;;;;;15.97;12.30;;;16.40;96.00;;;;;;5093917;28;20439;-68
2021/07/23 04:18:24;;;;;;;17.57;12.17;;;16.40;96.20;;;;;;5093941;28;20827;-68
2021/07/23 04:20:53;;;;;;;17.20;12.47;;;16.40;95.70;;;;;;5093924;28;20982;-68
2021/07/23 04:23:20;;;;;;;13.40;11.07;;;16.40;96.10;;;;;;5093718;28;20447;-68
2021/07/23 04:25:49;;;;;;;17.30;11.70;;;16.40;96.20;;;;;;5093482;28;20988;-67
2021/07/23 04:28:18;;;;;;;22.00;14.17;;;16.40;96.40;;;;;;5093692;28;20442;-67
2021/07/23 04:30:56;;;;;;;26.33;13.70;;;16.50;96.70;;;;;;5093554;28;20442;-68
2021/07/23 04:33:25;;;;;;;20.23;12.73;;;16.50;96.60;;;;;;5093783;28;20786;-67
2021/07/23 04:35:59;;;;;;;19.57;12.43;;;16.50;96.60;;;;;;5093662;28;20435;-68
2021/07/23 04:38:28;;;;;;;16.83;11.20;;;16.60;96.30;;;;;;5093441;28;20827;-67
2021/07/23 04:40:57;;;;;;;14.87;10.90;;;16.60;96.10;;;;;;5092901;28;20884;-69
2021/07/23 04:43:25;;;;;;;15.10;12.23;;;16.60;95.80;;;;;;5087817;28;20439;-68
2021/07/23 04:45:52;;;;;;;16.53;11.87;;;16.60;96.10;;;;;;5089694;28;20481;-67
2021/07/23 04:48:21;;;;;;;17.33;13.00;;;16.70;96.40;;;;;;5091413;28;20443;-68
2021/07/23 04:50:50;;;;;;;20.60;12.13;;;16.70;96.30;;;;;;5090684;28;20466;-68
2021/07/23 04:53:18;;;;;;;17.17;12.40;;;16.60;96.60;;;;;;5089758;28;20439;-69
2021/07/23 04:55:53;;;;;;;20.40;12.60;;;16.60;96.50;;;;;;5091217;28;20435;-68
2021/07/23 04:58:25;;;;;;;16.07;11.50;;;16.60;96.50;;;;;;5090227;28;20936;-69
2021/07/23 05:00:53;;;;;;;16.50;11.77;;;16.70;96.70;;;;;;5086150;28;20498;-69
2021/07/23 05:03:27;;;;;;;15.43;12.07;;;16.80;96.60;;;;;;5089698;28;20431;-69
2021/07/23 05:08:52;;;;;;;17.20;13.93;;;17.00;96.60;;;;;;5093580;28;20442;-71
2021/07/23 05:11:25;;;;;;;22.37;14.40;;;17.00;96.50;;;;;;5091359;28;20929;-70
2021/07/23 05:14:02;;;;;;;22.60;14.73;;;17.00;96.50;;;;;;5094171;28;20466;-70
2021/07/23 05:16:31;;;;;;;19.83;13.40;;;17.20;96.90;;;;;;5091413;28;20861;-69
2021/07/23 05:19:02;;;;;;;17.77;13.10;;;17.30;96.90;;;;;;5094549;28;20445;-70
2021/07/23 05:21:42;;;;;;;15.17;11.40;;;17.30;96.80;;;;;;5094692;28;20446;-71
2021/07/23 05:24:10;;;;;;;23.30;14.53;;;17.40;96.20;;;;;;5094417;28;20443;-69
2021/07/23 05:26:43;;;;;;;18.63;14.27;;;17.40;96.30;;;;;;5094130;28;20478;-70
2021/07/23 05:29:11;;;;;;;17.80;13.70;;;17.50;95.80;;;;;;5093472;28;20913;-70
2021/07/23 05:31:40;;;;;;;20.73;13.13;;;17.50;95.90;;;;;;5094299;28;20434;-70
2021/07/23 05:34:10;;;;;;;14.97;11.20;;;17.60;96.10;;;;;;5094200;28;20519;-70
2021/07/23 05:36:42;;;;;;;20.93;13.03;;;17.70;95.90;;;;;;5093934;28;20527;-69
2021/07/23 05:39:10;;;;;;;16.20;11.77;;;17.70;95.40;;;;;;5093958;28;20434;-71
2021/07/23 05:41:39;;;;;;;17.20;13.40;;;17.90;95.70;;;;;;5093912;28;20427;-71
2021/07/23 05:44:11;;;;;;;16.10;12.33;;;18.00;95.90;;;;;;5093812;28;20435;-69
2021/07/23 05:46:38;;;;;;;19.80;12.63;;;18.10;96.00;;;;;;5094104;28;20814;-69
2021/07/23 05:49:10;;;;;;;15.67;12.23;;;18.30;95.80;;;;;;5093894;28;20438;-70
2021/07/23 05:51:40;;;;;;;16.20;12.60;;;18.40;95.30;;;;;;5090372;28;20449;-70
2021/07/23 05:54:10;;;;;;;18.70;14.00;;;18.50;94.90;;;;;;5091393;28;20427;-70
2021/07/23 05:56:42;;;;;;;18.53;12.90;;;18.60;94.50;;;;;;5092780;28;20504;-70
2021/07/23 05:59:11;;;;;;;14.73;12.23;;;18.80;93.90;;;;;;5090176;28;20476;-69
2021/07/23 06:01:40;;;;;;;19.10;12.23;;;18.90;94.30;;;;;;5093268;28;20427;-71
2021/07/23 06:04:11;;;;;;;18.30;12.50;;;19.00;94.40;;;;;;5093077;28;20443;-71
2021/07/23 06:06:40;;;;;;;15.17;11.33;;;19.10;94.60;;;;;;5093610;28;21010;-75
2021/07/23 06:09:10;;;;;;;17.40;12.27;;;19.30;94.10;;;;;;5092947;28;20431;-72
2021/07/23 06:11:39;;;;;;;14.50;11.40;;;19.40;93.70;;;;;;5092908;28;20529;-69
2021/07/23 06:14:09;;;;;;;17.30;11.37;;;19.60;94.00;;;;;;5093186;28;20439;-70
2021/07/23 06:16:40;;;;;;;20.03;12.50;;;19.70;92.90;;;;;;5093789;28;20435;-69
2021/07/23 06:19:09;;;;;;;22.00;12.87;;;19.70;92.50;;;;;;5092342;28;20424;-70
2021/07/23 06:21:38;;;;;;;16.43;11.70;;;19.80;92.10;;;;;;5093198;28;20431;-69
2021/07/23 06:24:08;;;;;;;17.20;11.40;;;19.90;92.40;;;;;;5091704;28;20439;-70
2021/07/23 06:26:38;;;;;;;18.77;12.83;;;19.90;92.00;;;;;;5092621;28;20503;-70
2021/07/23 06:29:06;;;;;;;18.13;11.17;;;19.90;91.70;;;;;;5093668;28;20431;-70
2021/07/23 06:31:34;;;;;;;15.43;11.13;;;20.00;91.00;;;;;;5093703;28;20434;-69
2021/07/23 06:34:04;;;;;;;17.87;11.37;;;20.00;91.40;;;;;;5093462;28;20496;-69
2021/07/23 06:36:33;;;;;;;16.23;11.93;;;20.00;91.30;;;;;;5089371;28;20790;-69
2021/07/23 06:39:01;;;;;;;17.67;12.73;;;20.10;91.70;;;;;;5093056;28;20802;-71
2021/07/23 06:41:31;;;;;;;19.27;11.53;;;20.20;91.90;;;;;;5092912;28;20446;-70
2021/07/23 06:43:58;;;;;;;18.27;12.07;;;20.30;91.60;;;;;;5089065;28;20435;-69
2021/07/23 06:46:25;;;;;;;15.47;11.77;;;20.40;91.60;;;;;;5092784;28;20491;-69
2021/07/23 06:48:52;;;;;;;13.90;10.80;;;20.50;91.80;;;;;;5093263;28;20435;-69
2021/07/23 06:51:21;;;;;;;16.03;13.40;;;20.70;91.90;;;;;;5092570;28;20442;-71
2021/07/23 06:53:48;;;;;;;14.13;12.07;;;20.80;91.60;;;;;;5093123;28;20431;-69
2021/07/23 06:56:17;;;;;;;19.23;11.60;;;21.00;91.10;;;;;;5092952;28;20443;-71
2021/07/23 06:58:46;;;;;;;14.57;12.27;;;21.10;91.00;;;;;;5092163;28;20982;-69
2021/07/23 07:01:13;;;;;;;16.17;12.37;;;21.30;90.60;;;;;;5093489;28;20469;-69
2021/07/23 07:03:40;;;;;;;20.57;11.07;;;21.50;90.90;;;;;;5090980;28;20528;-69
2021/07/23 07:06:07;;;;;;;15.17;12.10;;;21.70;90.80;;;;;;5092340;28;20486;-70
2021/07/23 07:08:46;;;;;;;15.97;11.67;;;21.90;90.70;;;;;;5092690;28;20913;-69
2021/07/23 07:11:13;;;;;;;15.27;10.80;;;22.00;89.00;;;;;;5089267;28;20488;-69
2021/07/23 07:13:41;;;;;;;17.23;12.27;;;22.10;88.10;;;;;;5093102;28;20447;-69
2021/07/23 07:16:08;;;;;;;14.53;11.40;;;22.00;86.40;;;;;;5093160;28;20446;-71
2021/07/23 07:18:35;;;;;;;12.70;10.40;;;22.10;85.70;;;;;;5090382;28;20830;-69
2021/07/23 07:21:02;;;;;;;15.80;10.87;;;22.20;87.30;;;;;;5091332;28;20467;-69
2021/07/23 07:23:28;;;;;;;16.60;12.03;;;22.40;88.00;;;;;;5092806;28;20439;-70
2021/07/23 07:26:00;;;;;;;18.00;12.33;;;22.50;87.00;;;;;;5092825;28;20443;-69
2021/07/23 07:28:27;;;;;;;14.93;11.60;;;22.60;86.60;;;;;;5088784;28;20519;-71
2021/07/23 07:30:55;;;;;;;17.10;13.00;;;22.80;86.50;;;;;;5091344;28;20532;-69
2021/07/23 07:33:22;;;;;;;15.50;12.47;;;22.90;86.50;;;;;;5092524;28;20513;-71
2021/07/23 07:35:50;;;;;;;18.80;10.97;;;23.00;84.70;;;;;;5091922;28;20440;-71
2021/07/23 07:38:17;;;;;;;16.60;12.10;;;23.10;85.00;;;;;;5092776;28;20442;-69
2021/07/23 07:40:45;;;;;;;16.73;12.43;;;23.20;82.80;;;;;;5091600;28;20424;-70
2021/07/23 07:43:13;;;;;;;15.03;11.50;;;23.30;82.70;;;;;;5090558;28;20520;-69
2021/07/23 07:45:40;;;;;;;16.43;10.87;;;23.30;80.80;;;;;;5091610;28;20437;-69
2021/07/23 07:48:10;;;;;;;17.07;11.87;;;23.40;79.90;;;;;;5091867;28;20551;-70
2021/07/23 07:50:37;;;;;;;16.53;12.37;;;23.50;79.20;;;;;;5082645;28;20970;-70
2021/07/23 07:53:09;;;;;;;16.20;10.90;;;23.70;79.50;;;;;;5078784;28;20439;-71
2021/07/23 07:55:36;;;;;;;20.23;11.77;;;23.80;78.80;;;;;;5080305;28;20450;-69
2021/07/23 07:58:03;;;;;;;15.80;11.83;;;24.00;78.80;;;;;;5080062;28;20617;-70
2021/07/23 08:00:30;;;;;;;12.47;11.13;;;24.10;76.20;;;;;;5080252;28;20891;-70
2021/07/23 08:02:57;;;;;;;16.10;11.70;;;24.10;77.70;;;;;;5079767;28;20473;-68
2021/07/23 08:05:26;;;;;;;12.77;10.40;;;24.30;77.70;;;;;;5083044;28;21095;-69
2021/07/23 08:07:57;;;;;;;16.50;11.43;;;24.50;77.20;;;;;;5080980;28;20570;-68
2021/07/23 08:10:25;;;;;;;17.90;12.47;;;24.70;75.10;;;;;;5080078;28;20973;-68
2021/07/23 08:12:52;;;;;;;14.90;11.00;;;24.80;75.40;;;;;;5079360;28;20463;-67
2021/07/23 08:15:20;;;;;;;12.97;10.17;;;24.90;75.10;;;;;;5080544;28;20460;-68
2021/07/23 08:17:47;;;;;;;14.60;11.23;;;25.10;73.70;;;;;;5079887;28;20473;-68
2021/07/23 08:20:14;;;;;;;13.73;11.07;;;25.30;74.50;;;;;;5079706;28;20533;-67
2021/07/23 08:22:42;;;;;;;14.40;11.20;;;25.50;75.70;;;;;;5078173;28;20896;-69
2021/07/23 08:25:10;;;;;;;19.13;12.00;;;25.70;74.30;;;;;;5080025;28;20435;-67
2021/07/23 08:27:37;;;;;;;13.50;11.37;;;25.90;74.10;;;;;;5080725;28;21018;-69
2021/07/23 08:30:06;;;;;;;14.80;11.10;;;26.00;73.10;;;;;;5079775;28;20449;-69
2021/07/23 08:32:36;;;;;;;13.97;10.90;;;26.10;72.80;;;;;;5078241;28;20567;-69
2021/07/23 08:35:04;;;;;;;15.37;12.47;;;26.20;71.40;;;;;;5079872;28;20810;-70
2021/07/23 08:37:33;;;;;;;15.40;12.00;;;26.30;68.90;;;;;;5086622;28;20423;-69
2021/07/23 08:40:04;;;;;;;15.07;12.57;;;26.40;71.00;;;;;;5090602;28;20442;-68
2021/07/23 08:42:33;;;;;;;14.90;11.80;;;26.50;70.40;;;;;;5093336;28;20477;-68
2021/07/23 08:45:02;;;;;;;13.80;11.80;;;26.60;70.40;;;;;;5093347;28;20442;-69
2021/07/23 08:47:29;;;;;;;16.20;12.07;;;26.90;71.20;;;;;;5093298;28;20482;-68
2021/07/23 08:49:56;;;;;;;14.70;11.80;;;27.10;70.70;;;;;;5093477;28;20443;-68
2021/07/23 08:52:43;;;;;;;13.87;12.10;;;27.30;66.40;;;;;;5093396;28;20435;-68
2021/07/23 08:55:13;;;;;;;12.90;11.20;;;27.60;65.90;;;;;;5093221;28;20789;-68
2021/07/23 08:57:41;;;;;;;15.83;12.07;;;27.80;66.30;;;;;;5093328;28;20927;-68
2021/07/23 09:00:10;;;;;;;15.30;12.77;;;27.90;63.60;;;;;;5093136;28;20494;-68
2021/07/23 09:02:57;;;;;;;15.10;11.90;;;28.10;66.20;;;;;;5093405;28;20443;-68
2021/07/23 09:05:26;;;;;;;15.20;12.20;;;28.10;63.40;;;;;;5093400;28;20504;-68
2021/07/23 09:07:54;;;;;;;16.00;13.03;;;28.10;64.10;;;;;;5093252;28;20556;-68
2021/07/23 09:10:26;;;;;;;16.43;12.13;;;28.20;63.90;;;;;;5093226;28;20435;-68
2021/07/23 09:12:54;;;;;;;21.33;14.40;;;28.20;60.30;;;;;;5093260;28;21057;-68
2021/07/23 09:15:26;;;;;;;16.23;12.10;;;28.20;62.40;;;;;;5093223;28;20442;-68
2021/07/23 09:17:55;;;;;;;15.00;11.97;;;28.30;62.80;;;;;;5093298;28;20502;-68
2021/07/23 09:20:28;;;;;;;14.10;11.67;;;28.40;61.90;;;;;;5093147;28;20498;-68
2021/07/23 09:22:56;;;;;;;14.77;12.30;;;28.40;63.30;;;;;;5093220;28;20931;-68
2021/07/23 09:25:36;;;;;;;14.67;11.90;;;28.50;63.40;;;;;;5093203;28;20440;-68
2021/07/23 09:28:03;;;;;;;16.90;13.47;;;28.60;61.80;;;;;;5089954;28;20484;-72
2021/07/23 09:30:42;;;;;;;16.40;13.77;;;28.70;61.70;;;;;;5091390;28;20554;-69
2021/07/23 09:33:10;;;;;;;15.50;12.60;;;28.80;60.40;;;;;;5090872;28;20925;-68
2021/07/23 09:35:37;;;;;;;19.37;11.70;;;28.90;61.70;;;;;;5092160;28;20835;-69
2021/07/23 09:38:04;;;;;;;13.43;11.73;;;29.00;59.90;;;;;;5092732;28;20440;-69
2021/07/23 09:40:42;;;;;;;21.23;12.73;;;29.00;59.70;;;;;;5092827;28;20433;-68
2021/07/23 09:43:09;;;;;;;18.33;12.43;;;29.20;60.70;;;;;;5093135;28;20437;-68
2021/07/23 09:45:36;;;;;;;16.10;11.60;;;29.40;61.60;;;;;;5093032;28;20519;-68
2021/07/23 09:48:11;;;;;;;20.33;12.73;;;29.60;62.20;;;;;;5092543;28;20485;-68
2021/07/23 09:50:40;;;;;;;14.90;12.17;;;29.90;61.60;;;;;;5092802;28;20441;-69
2021/07/23 09:53:13;;;;;;;15.63;12.70;;;30.10;59.60;;;;;;5093648;28;20426;-68
2021/07/23 09:55:44;;;;;;;17.20;12.77;;;30.10;58.90;;;;;;5096907;28;20453;-68
2021/07/23 09:58:14;;;;;;;15.10;13.50;;;30.10;56.70;;;;;;5096560;28;20499;-68
2021/07/23 10:00:43;;;;;;;15.07;12.30;;;30.20;57.70;;;;;;5096147;28;20470;-68
2021/07/23 10:03:13;;;;;;;14.07;12.40;;;30.30;56.80;;;;;;5096484;28;20438;-68
2021/07/23 10:05:48;;;;;;;14.67;12.40;;;30.40;56.60;;;;;;5096600;28;20431;-68
2021/07/23 10:08:22;;;;;;;22.30;13.20;;;30.40;56.60;;;;;;5096335;28;20570;-68
2021/07/23 10:10:52;;;;;;;14.50;12.70;;;30.50;56.50;;;;;;5092280;28;20984;-68
2021/07/23 10:13:22;;;;;;;18.70;12.33;;;30.60;56.00;;;;;;5094427;28;20446;-68
2021/07/23 10:15:50;;;;;;;15.20;11.90;;;30.60;54.00;;;;;;5094548;28;20445;-68
2021/07/23 10:18:18;;;;;;;15.37;13.07;;;30.70;54.20;;;;;;5094290;28;20443;-69
2021/07/23 10:20:47;;;;;;;17.00;13.30;;;30.70;55.80;;;;;;5094099;28;20447;-69
2021/07/23 10:23:19;;;;;;;14.57;13.03;;;30.80;55.60;;;;;;5094270;28;20442;-68
2021/07/23 10:25:50;;;;;;;16.33;13.53;;;30.90;54.40;;;;;;5094164;28;20532;-67
2021/07/23 10:28:54;;;;;;;16.13;12.63;;;30.90;52.80;;;;;;5093731;28;20483;-68
2021/07/23 10:31:54;;;;;;;15.47;12.10;;;30.90;51.70;;;;;;5094243;28;20487;-68
2021/07/23 10:34:32;;;;;;;13.87;11.93;;;30.90;50.60;;;;;;5070987;28;20428;-69
2021/07/23 10:36:59;;;;;;;13.17;11.60;;;30.90;50.80;;;;;;5070545;28;20802;-69
2021/07/23 10:39:28;;;;;;;16.70;12.17;;;30.90;49.40;;;;;;5082708;28;20492;-69
2021/07/23 10:42:34;;;;;;;14.70;12.50;;;31.00;51.60;;;;;;5093788;28;20905;-70
2021/07/23 10:45:04;;;;;;;16.43;12.97;;;31.00;51.70;;;;;;5093842;28;20530;-70
2021/07/23 10:47:39;;;;;;;17.83;12.70;;;31.10;53.00;;;;;;5093381;28;20486;-69
2021/07/23 10:50:08;;;;;;;13.77;12.37;;;31.20;50.30;;;;;;5093549;28;20435;-69
2021/07/23 10:52:37;;;;;;;14.67;12.50;;;31.20;50.90;;;;;;5092550;28;20439;-68
2021/07/23 10:55:16;;;;;;;14.80;11.70;;;31.30;50.40;;;;;;5093405;28;20846;-68
2021/07/23 10:57:44;;;;;;;17.17;13.17;;;31.40;47.60;;;;;;5093266;28;20488;-68
2021/07/23 11:00:13;;;;;;;14.30;12.57;;;31.40;47.70;;;;;;5093277;28;20467;-68
2021/07/23 11:02:45;;;;;;;14.60;12.37;;;31.40;47.20;;;;;;5093264;28;20443;-68
2021/07/23 11:05:20;;;;;;;15.30;12.57;;;31.50;46.50;;;;;;5092809;28;20488;-69
2021/07/23 11:07:47;;;;;;;17.23;12.40;;;31.50;44.60;;;;;;5092782;28;20531;-69
2021/07/23 11:10:20;;;;;;;18.50;12.60;;;31.60;45.50;;;;;;5092657;28;20474;-69
2021/07/23 11:12:47;;;;;;;14.37;12.50;;;31.70;48.80;;;;;;5092561;28;20435;-68
2021/07/23 11:15:16;;;;;;;16.70;12.00;;;31.80;49.10;;;;;;5093039;28;20868;-68
2021/07/23 11:17:53;;;;;;;14.37;12.63;;;31.80;44.90;;;;;;5092410;28;20435;-68
2021/07/23 11:20:24;;;;;;;14.00;12.23;;;31.70;45.50;;;;;;5092948;28;20492;-68
2021/07/23 11:22:52;;;;;;;16.30;12.70;;;31.80;45.30;;;;;;5092322;28;20462;-68
2021/07/23 11:25:20;;;;;;;16.00;12.13;;;31.90;47.70;;;;;;5092749;28;20782;-68
2021/07/23 11:27:52;;;;;;;18.13;13.10;;;32.00;47.40;;;;;;5092420;28;20808;-68
2021/07/23 11:30:23;;;;;;;16.70;13.50;;;32.20;46.70;;;;;;5092787;28;20497;-68
2021/07/23 11:32:52;;;;;;;13.27;11.87;;;32.30;48.40;;;;;;5090854;28;20431;-68
2021/07/23 11:35:20;;;;;;;12.97;11.23;;;32.40;46.20;;;;;;5086651;28;20439;-71
2021/07/23 11:37:47;;;;;;;14.10;12.40;;;32.50;46.50;;;;;;5093806;28;20539;-69
2021/07/23 11:40:16;;;;;;;20.30;12.03;;;32.60;45.50;;;;;;5091666;28;20461;-68
2021/07/23 11:42:45;;;;;;;16.10;12.87;;;32.70;44.50;;;;;;5090887;28;20431;-70
2021/07/23 11:45:14;;;;;;;15.67;13.50;;;32.70;44.00;;;;;;5091496;28;20909;-70
2021/07/23 11:47:43;;;;;;;14.60;13.20;;;32.60;42.40;;;;;;5090084;28;20474;-68
2021/07/23 11:50:12;;;;;;;12.70;11.40;;;32.60;43.40;;;;;;5091032;28;20438;-68
2021/07/23 11:52:39;;;;;;;16.33;12.60;;;32.60;46.10;;;;;;5090969;28;20443;-69
2021/07/23 11:55:08;;;;;;;14.93;12.00;;;32.60;46.00;;;;;;5090961;28;20474;-69
2021/07/23 11:57:40;;;;;;;15.10;11.60;;;32.50;46.20;;;;;;5090540;28;20466;-68
2021/07/23 12:00:20;;;;;;;13.33;11.63;;;32.50;45.50;;;;;;5100214;28;20529;-70
2021/07/23 12:02:50;;;;;;;14.37;12.47;;;32.60;45.80;;;;;;5102131;28;20797;-70
2021/07/23 12:05:17;;;;;;;15.50;13.80;;;32.60;46.30;;;;;;5090178;28;20467;-69
2021/07/23 12:07:56;;;;;;;15.20;11.80;;;32.70;46.40;;;;;;5090391;28;20507;-68
2021/07/23 12:10:24;;;;;;;14.60;12.60;;;32.80;46.00;;;;;;5091384;28;20443;-69
2021/07/23 12:12:51;;;;;;;15.27;11.87;;;32.80;44.60;;;;;;5092822;28;20439;-73
2021/07/23 12:15:19;;;;;;;16.83;11.77;;;32.80;41.80;;;;;;5091788;28;20475;-70
2021/07/23 12:17:49;;;;;;;15.03;12.00;;;32.70;42.20;;;;;;5092560;28;20435;-69
2021/07/23 12:20:18;;;;;;;13.50;12.10;;;32.60;43.40;;;;;;5093290;28;20524;-68
2021/07/23 12:22:57;;;;;;;13.03;11.70;;;32.50;43.80;;;;;;5093260;28;20469;-68
2021/07/23 12:25:25;;;;;;;15.73;12.07;;;32.30;43.60;;;;;;5093226;28;20437;-68
2021/07/23 12:28:08;;;;;;;14.27;12.50;;;32.30;45.60;;;;;;5093154;28;20516;-68
2021/07/23 12:30:36;;;;;;;16.80;11.53;;;32.30;45.30;;;;;;5092490;28;20541;-69
2021/07/23 12:33:15;;;;;;;17.97;11.67;;;32.20;43.60;;;;;;5093805;28;20471;-67
2021/07/23 12:35:42;;;;;;;14.33;11.77;;;32.20;45.80;;;;;;5093608;28;20902;-67
2021/07/23 12:38:10;;;;;;;12.10;10.90;;;32.10;45.50;;;;;;5093467;28;20439;-68
2021/07/23 12:40:47;;;;;;;13.50;11.53;;;32.10;44.70;;;;;;5093481;28;20467;-67
2021/07/23 12:43:16;;;;;;;15.03;12.60;;;32.00;44.60;;;;;;5093599;28;20443;-68